sensor_id;sensor_type;location;lat;lon;timestamp;pressure;altitude;pressure_sealevel;temperature
74915;BMP280;63475;45.140;-75.616;2022-11-20T00:00:35;100351.34;;;-2.15
74915;BMP280;63475;45.140;-75.616;2022-11-20T00:01:36;100361.09;;;-2.12
74915;BMP280;63475;45.140;-75.616;2022-11-20T00:02:37;100359.06;;;-2.06
74915;BMP280;63475;45.140;-75.616;2022-11-20T00:03:38;100361.47;;;-2.01
74915;BMP280;63475;45.140;-75.616;2022-11-20T00:04:39;100307.34;;;-2.41
74915;BMP280;63475;45.140;-75.616;2022-11-20T00:05:39;100365.16;;;-2.02
74915;BMP280;63475;45.140;-75.616;2022-11-20T00:06:40;100357.09;;;-2.09
74915;BMP280;63475;45.140;-75.616;2022-11-20T00:07:41;100351.34;;;-2.15
74915;BMP280;63475;45.140;-75.616;2022-11-20T00:08:42;100321.78;;;-2.31
74915;BMP280;63475;45.140;-75.616;2022-11-20T00:10:02;100352.84;;;-2.14
74915;BMP280;63475;45.140;-75.616;2022-11-20T00:11:07;100303.50;;;-2.35
74915;BMP280;63475;45.140;-75.616;2022-11-20T00:12:08;100338.75;;;-2.04
74915;BMP280;63475;45.140;-75.616;2022-11-20T00:13:09;100331.28;;;-2.06
74915;BMP280;63475;45.140;-75.616;2022-11-20T00:14:10;100304.97;;;-2.25
74915;BMP280;63475;45.140;-75.616;2022-11-20T00:15:11;100322.88;;;-2.03
74915;BMP280;63475;45.140;-75.616;2022-11-20T00:16:13;100338.56;;;-1.99
74915;BMP280;63475;45.140;-75.616;2022-11-20T00:17:14;100339.00;;;-1.97
74915;BMP280;63475;45.140;-75.616;2022-11-20T00:18:15;100308.47;;;-2.21
74915;BMP280;63475;45.140;-75.616;2022-11-20T00:19:16;100330.47;;;-1.98
74915;BMP280;63475;45.140;-75.616;2022-11-20T00:20:17;100340.09;;;-1.98
74915;BMP280;63475;45.140;-75.616;2022-11-20T00:21:20;100324.19;;;-1.97
74915;BMP280;63475;45.140;-75.616;2022-11-20T00:22:22;100327.13;;;-1.98
74915;BMP280;63475;45.140;-75.616;2022-11-20T00:23:22;100282.56;;;-2.30
74915;BMP280;63475;45.140;-75.616;2022-11-20T00:24:23;100325.91;;;-2.01
74915;BMP280;63475;45.140;-75.616;2022-11-20T00:25:24;100316.88;;;-1.95
74915;BMP280;63475;45.140;-75.616;2022-11-20T00:26:26;100328.31;;;-1.96
74915;BMP280;63475;45.140;-75.616;2022-11-20T00:27:27;100316.28;;;-2.00
74915;BMP280;63475;45.140;-75.616;2022-11-20T00:28:28;100322.50;;;-1.93
74915;BMP280;63475;45.140;-75.616;2022-11-20T00:29:29;100325.22;;;-1.89
74915;BMP280;63475;45.140;-75.616;2022-11-20T00:30:30;100319.72;;;-1.88
74915;BMP280;63475;45.140;-75.616;2022-11-20T00:31:31;100325.22;;;-1.89
74915;BMP280;63475;45.140;-75.616;2022-11-20T00:32:33;100318.19;;;-1.89
74915;BMP280;63475;45.140;-75.616;2022-11-20T00:33:35;100323.38;;;-1.89
74915;BMP280;63475;45.140;-75.616;2022-11-20T00:34:35;100257.31;;;-2.41
74915;BMP280;63475;45.140;-75.616;2022-11-20T00:35:36;100317.19;;;-1.96
74915;BMP280;63475;45.140;-75.616;2022-11-20T00:36:37;100306.03;;;-2.18
74915;BMP280;63475;45.140;-75.616;2022-11-20T00:37:38;100321.22;;;-2.07
74915;BMP280;63475;45.140;-75.616;2022-11-20T00:38:39;100325.66;;;-2.08
74915;BMP280;63475;45.140;-75.616;2022-11-20T00:39:40;100316.91;;;-2.03
74915;BMP280;63475;45.140;-75.616;2022-11-20T00:40:41;100309.59;;;-2.01
74915;BMP280;63475;45.140;-75.616;2022-11-20T00:41:42;100312.50;;;-2.03
74915;BMP280;63475;45.140;-75.616;2022-11-20T00:42:49;100308.88;;;-2.10
74915;BMP280;63475;45.140;-75.616;2022-11-20T00:43:52;100308.16;;;-2.20
74915;BMP280;63475;45.140;-75.616;2022-11-20T00:44:53;100297.19;;;-2.25
74915;BMP280;63475;45.140;-75.616;2022-11-20T00:46:01;100308.56;;;-2.09
74915;BMP280;63475;45.140;-75.616;2022-11-20T00:47:02;100309.06;;;-2.16
74915;BMP280;63475;45.140;-75.616;2022-11-20T00:48:03;100306.28;;;-2.10
74915;BMP280;63475;45.140;-75.616;2022-11-20T00:49:04;100265.06;;;-2.33
74915;BMP280;63475;45.140;-75.616;2022-11-20T00:50:05;100310.53;;;-2.06
74915;BMP280;63475;45.140;-75.616;2022-11-20T00:51:06;100299.53;;;-2.03
74915;BMP280;63475;45.140;-75.616;2022-11-20T00:52:07;100310.84;;;-2.07
74915;BMP280;63475;45.140;-75.616;2022-11-20T00:53:08;100298.41;;;-2.23
74915;BMP280;63475;45.140;-75.616;2022-11-20T00:54:09;100274.09;;;-2.39
74915;BMP280;63475;45.140;-75.616;2022-11-20T00:55:10;100298.25;;;-2.18
74915;BMP280;63475;45.140;-75.616;2022-11-20T00:56:13;100303.88;;;-2.16
74915;BMP280;63475;45.140;-75.616;2022-11-20T00:57:14;100290.63;;;-2.23
74915;BMP280;63475;45.140;-75.616;2022-11-20T00:58:15;100254.16;;;-2.47
74915;BMP280;63475;45.140;-75.616;2022-11-20T00:59:16;100300.78;;;-2.09
74915;BMP280;63475;45.140;-75.616;2022-11-20T01:00:17;100260.25;;;-2.43
74915;BMP280;63475;45.140;-75.616;2022-11-20T01:01:23;100308.44;;;-2.13
74915;BMP280;63475;45.140;-75.616;2022-11-20T01:02:24;100301.16;;;-2.19
74915;BMP280;63475;45.140;-75.616;2022-11-20T01:03:25;100303.56;;;-2.14
74915;BMP280;63475;45.140;-75.616;2022-11-20T01:04:26;100298.41;;;-2.23
74915;BMP280;63475;45.140;-75.616;2022-11-20T01:05:27;100244.72;;;-2.52
74915;BMP280;63475;45.140;-75.616;2022-11-20T01:06:33;100305.56;;;-2.20
74915;BMP280;63475;45.140;-75.616;2022-11-20T01:07:34;100297.50;;;-2.18
74915;BMP280;63475;45.140;-75.616;2022-11-20T01:08:36;100304.00;;;-2.12
74915;BMP280;63475;45.140;-75.616;2022-11-20T01:09:37;100295.34;;;-2.16
74915;BMP280;63475;45.140;-75.616;2022-11-20T01:10:38;100294.25;;;-2.15
74915;BMP280;63475;45.140;-75.616;2022-11-20T01:11:42;100285.53;;;-2.10
74915;BMP280;63475;45.140;-75.616;2022-11-20T01:12:43;100250.25;;;-2.32
74915;BMP280;63475;45.140;-75.616;2022-11-20T01:14:06;100296.03;;;-2.07
74915;BMP280;63475;45.140;-75.616;2022-11-20T01:15:08;100293.31;;;-2.10
74915;BMP280;63475;45.140;-75.616;2022-11-20T01:16:12;100289.50;;;-2.13
74915;BMP280;63475;45.140;-75.616;2022-11-20T01:17:13;100279.47;;;-2.23
74915;BMP280;63475;45.140;-75.616;2022-11-20T01:18:14;100286.50;;;-2.24
74915;BMP280;63475;45.140;-75.616;2022-11-20T01:19:18;100283.88;;;-2.15
74915;BMP280;63475;45.140;-75.616;2022-11-20T01:20:19;100292.03;;;-2.04
74915;BMP280;63475;45.140;-75.616;2022-11-20T01:21:29;100226.84;;;-2.45
74915;BMP280;63475;45.140;-75.616;2022-11-20T01:22:30;100287.94;;;-2.05
74915;BMP280;63475;45.140;-75.616;2022-11-20T01:23:35;100267.13;;;-2.18
74915;BMP280;63475;45.140;-75.616;2022-11-20T01:24:37;100279.56;;;-2.11
74915;BMP280;63475;45.140;-75.616;2022-11-20T01:25:38;100263.16;;;-2.24
74915;BMP280;63475;45.140;-75.616;2022-11-20T01:26:40;100277.94;;;-2.16
74915;BMP280;63475;45.140;-75.616;2022-11-20T01:27:41;100256.59;;;-2.21
74915;BMP280;63475;45.140;-75.616;2022-11-20T01:28:43;100276.53;;;-2.13
74915;BMP280;63475;45.140;-75.616;2022-11-20T01:29:44;100274.38;;;-2.11
74915;BMP280;63475;45.140;-75.616;2022-11-20T01:30:45;100267.50;;;-2.07
74915;BMP280;63475;45.140;-75.616;2022-11-20T01:31:46;100210.97;;;-2.43
74915;BMP280;63475;45.140;-75.616;2022-11-20T01:32:47;100256.34;;;-2.07
74915;BMP280;63475;45.140;-75.616;2022-11-20T01:33:50;100265.97;;;-2.08
74915;BMP280;63475;45.140;-75.616;2022-11-20T01:34:51;100260.09;;;-2.17
74915;BMP280;63475;45.140;-75.616;2022-11-20T01:35:52;100226.66;;;-2.39
74915;BMP280;63475;45.140;-75.616;2022-11-20T01:36:53;100270.28;;;-2.12
74915;BMP280;63475;45.140;-75.616;2022-11-20T01:37:54;100264.25;;;-2.04
74915;BMP280;63475;45.140;-75.616;2022-11-20T01:38:59;100263.50;;;-2.04
74915;BMP280;63475;45.140;-75.616;2022-11-20T01:40:00;100266.41;;;-2.06
74915;BMP280;63475;45.140;-75.616;2022-11-20T01:41:01;100259.78;;;-2.16
74915;BMP280;63475;45.140;-75.616;2022-11-20T01:42:02;100260.25;;;-2.22
74915;BMP280;63475;45.140;-75.616;2022-11-20T01:43:22;100255.06;;;-2.22
74915;BMP280;63475;45.140;-75.616;2022-11-20T01:46:00;100254.00;;;-2.21
74915;BMP280;63475;45.140;-75.616;2022-11-20T01:47:04;100259.19;;;-2.21
74915;BMP280;63475;45.140;-75.616;2022-11-20T01:48:07;100197.31;;;-2.52
74915;BMP280;63475;45.140;-75.616;2022-11-20T01:49:22;100247.91;;;-2.25
74915;BMP280;63475;45.140;-75.616;2022-11-20T01:50:27;100250.69;;;-2.30
74915;BMP280;63475;45.140;-75.616;2022-11-20T01:53:00;100181.97;;;-2.66
74915;BMP280;63475;45.140;-75.616;2022-11-20T01:54:06;100249.97;;;-2.10
74915;BMP280;63475;45.140;-75.616;2022-11-20T01:55:19;100222.16;;;-2.30
74915;BMP280;63475;45.140;-75.616;2022-11-20T01:56:22;100241.22;;;-2.26
74915;BMP280;63475;45.140;-75.616;2022-11-20T01:57:25;100222.41;;;-2.44
74915;BMP280;63475;45.140;-75.616;2022-11-20T01:58:32;100238.34;;;-2.33
74915;BMP280;63475;45.140;-75.616;2022-11-20T01:59:37;100246.69;;;-2.19
74915;BMP280;63475;45.140;-75.616;2022-11-20T02:00:40;100247.13;;;-2.17
74915;BMP280;63475;45.140;-75.616;2022-11-20T02:01:41;100230.19;;;-2.23
74915;BMP280;63475;45.140;-75.616;2022-11-20T02:02:45;100243.78;;;-2.18
74915;BMP280;63475;45.140;-75.616;2022-11-20T02:03:48;100238.06;;;-2.11
74915;BMP280;63475;45.140;-75.616;2022-11-20T02:04:51;100243.25;;;-2.11
74915;BMP280;63475;45.140;-75.616;2022-11-20T02:06:09;100237.44;;;-2.08
74915;BMP280;63475;45.140;-75.616;2022-11-20T02:07:13;100239.28;;;-2.08
74915;BMP280;63475;45.140;-75.616;2022-11-20T02:08:14;100238.38;;;-2.13
74915;BMP280;63475;45.140;-75.616;2022-11-20T02:09:16;100241.22;;;-2.05
74915;BMP280;63475;45.140;-75.616;2022-11-20T02:10:17;100248.06;;;-2.01
74915;BMP280;63475;45.140;-75.616;2022-11-20T02:11:19;100243.75;;;-1.97
74915;BMP280;63475;45.140;-75.616;2022-11-20T02:12:20;100213.84;;;-2.15
74915;BMP280;63475;45.140;-75.616;2022-11-20T02:13:39;100246.16;;;-1.92
74915;BMP280;63475;45.140;-75.616;2022-11-20T02:14:43;100245.97;;;-1.87
74915;BMP280;63475;45.140;-75.616;2022-11-20T02:15:45;100247.34;;;-1.89
74915;BMP280;63475;45.140;-75.616;2022-11-20T02:16:47;100249.63;;;-1.88
74915;BMP280;63475;45.140;-75.616;2022-11-20T02:17:48;100246.78;;;-1.95
74915;BMP280;63475;45.140;-75.616;2022-11-20T02:18:50;100243.94;;;-2.02
74915;BMP280;63475;45.140;-75.616;2022-11-20T02:19:52;100241.91;;;-1.96
74915;BMP280;63475;45.140;-75.616;2022-11-20T02:21:04;100256.72;;;-1.97
74915;BMP280;63475;45.140;-75.616;2022-11-20T02:22:42;100182.69;;;-2.36
74915;BMP280;63475;45.140;-75.616;2022-11-20T02:24:01;100249.47;;;-1.83
74915;BMP280;63475;45.140;-75.616;2022-11-20T02:25:03;100248.13;;;-1.89
74915;BMP280;63475;45.140;-75.616;2022-11-20T02:26:07;100242.59;;;-1.87
74915;BMP280;63475;45.140;-75.616;2022-11-20T02:27:11;100198.00;;;-2.22
74915;BMP280;63475;45.140;-75.616;2022-11-20T02:28:13;100242.38;;;-1.94
74915;BMP280;63475;45.140;-75.616;2022-11-20T02:29:16;100239.56;;;-1.89
74915;BMP280;63475;45.140;-75.616;2022-11-20T02:30:19;100238.19;;;-1.87
74915;BMP280;63475;45.140;-75.616;2022-11-20T02:31:20;100234.44;;;-1.98
74915;BMP280;63475;45.140;-75.616;2022-11-20T02:32:27;100238.19;;;-1.87
74915;BMP280;63475;45.140;-75.616;2022-11-20T02:34:02;100242.91;;;-1.80
74915;BMP280;63475;45.140;-75.616;2022-11-20T02:36:27;100246.69;;;-1.77
74915;BMP280;63475;45.140;-75.616;2022-11-20T02:37:32;100239.78;;;-1.73
74915;BMP280;63475;45.140;-75.616;2022-11-20T02:38:34;100194.97;;;-2.03
74915;BMP280;63475;45.140;-75.616;2022-11-20T02:39:35;100243.16;;;-1.73
74915;BMP280;63475;45.140;-75.616;2022-11-20T02:40:36;100236.88;;;-1.72
74915;BMP280;63475;45.140;-75.616;2022-11-20T02:41:37;100236.88;;;-1.72
74915;BMP280;63475;45.140;-75.616;2022-11-20T02:42:38;100236.56;;;-1.70
74915;BMP280;63475;45.140;-75.616;2022-11-20T02:43:45;100232.69;;;-1.64
74915;BMP280;63475;45.140;-75.616;2022-11-20T02:44:46;100225.84;;;-1.69
74915;BMP280;63475;45.140;-75.616;2022-11-20T02:45:46;100185.38;;;-1.91
74915;BMP280;63475;45.140;-75.616;2022-11-20T02:46:47;100224.69;;;-1.59
74915;BMP280;63475;45.140;-75.616;2022-11-20T02:47:48;100212.34;;;-1.62
74915;BMP280;63475;45.140;-75.616;2022-11-20T02:48:49;100226.53;;;-1.60
74915;BMP280;63475;45.140;-75.616;2022-11-20T02:49:50;100212.56;;;-1.67
74915;BMP280;63475;45.140;-75.616;2022-11-20T02:50:51;100223.91;;;-1.72
74915;BMP280;63475;45.140;-75.616;2022-11-20T02:51:52;100172.13;;;-2.10
74915;BMP280;63475;45.140;-75.616;2022-11-20T02:52:53;100221.31;;;-1.72
74915;BMP280;63475;45.140;-75.616;2022-11-20T02:53:54;100198.03;;;-1.80
74915;BMP280;63475;45.140;-75.616;2022-11-20T02:54:55;100213.75;;;-1.65
74915;BMP280;63475;45.140;-75.616;2022-11-20T02:55:56;100220.47;;;-1.64
74915;BMP280;63475;45.140;-75.616;2022-11-20T02:56:57;100216.66;;;-1.66
74915;BMP280;63475;45.140;-75.616;2022-11-20T02:57:57;100181.84;;;-1.86
74915;BMP280;63475;45.140;-75.616;2022-11-20T02:58:58;100204.88;;;-1.64
74915;BMP280;63475;45.140;-75.616;2022-11-20T02:59:59;100217.97;;;-1.60
74915;BMP280;63475;45.140;-75.616;2022-11-20T03:01:00;100202.81;;;-1.70
74915;BMP280;63475;45.140;-75.616;2022-11-20T03:02:01;100213.09;;;-1.62
74915;BMP280;63475;45.140;-75.616;2022-11-20T03:03:02;100210.19;;;-1.60
74915;BMP280;63475;45.140;-75.616;2022-11-20T03:04:03;100209.09;;;-1.59
74915;BMP280;63475;45.140;-75.616;2022-11-20T03:05:04;100204.66;;;-1.59
74915;BMP280;63475;45.140;-75.616;2022-11-20T03:06:05;100201.31;;;-1.59
74915;BMP280;63475;45.140;-75.616;2022-11-20T03:07:09;100191.34;;;-1.69
74915;BMP280;63475;45.140;-75.616;2022-11-20T03:08:10;100200.88;;;-1.61
74915;BMP280;63475;45.140;-75.616;2022-11-20T03:09:11;100195.25;;;-1.63
74915;BMP280;63475;45.140;-75.616;2022-11-20T03:10:12;100191.56;;;-1.62
74915;BMP280;63475;45.140;-75.616;2022-11-20T03:11:13;100191.69;;;-1.59
74915;BMP280;63475;45.140;-75.616;2022-11-20T03:12:14;100195.38;;;-1.60
74915;BMP280;63475;45.140;-75.616;2022-11-20T03:13:27;100189.53;;;-1.57
74915;BMP280;63475;45.140;-75.616;2022-11-20T03:14:34;100183.91;;;-1.59
74915;BMP280;63475;45.140;-75.616;2022-11-20T03:15:36;100184.97;;;-1.60
74915;BMP280;63475;45.140;-75.616;2022-11-20T03:16:37;100177.06;;;-1.63
74915;BMP280;63475;45.140;-75.616;2022-11-20T03:17:38;100182.06;;;-1.58
74915;BMP280;63475;45.140;-75.616;2022-11-20T03:18:40;100182.81;;;-1.58
74915;BMP280;63475;45.140;-75.616;2022-11-20T03:19:51;100131.44;;;-1.85
74915;BMP280;63475;45.140;-75.616;2022-11-20T03:20:57;100181.09;;;-1.54
74915;BMP280;63475;45.140;-75.616;2022-11-20T03:21:58;100177.31;;;-1.56
74915;BMP280;63475;45.140;-75.616;2022-11-20T03:23:00;100170.28;;;-1.56
74915;BMP280;63475;45.140;-75.616;2022-11-20T03:24:02;100168.13;;;-1.54
74915;BMP280;63475;45.140;-75.616;2022-11-20T03:25:04;100156.09;;;-1.58
74915;BMP280;63475;45.140;-75.616;2022-11-20T03:26:23;100165.06;;;-1.56
74915;BMP280;63475;45.140;-75.616;2022-11-20T03:27:24;100163.88;;;-1.58
74915;BMP280;63475;45.140;-75.616;2022-11-20T03:28:25;100154.91;;;-1.61
74915;BMP280;63475;45.140;-75.616;2022-11-20T03:29:26;100151.22;;;-1.60
74915;BMP280;63475;45.140;-75.616;2022-11-20T03:30:27;100140.19;;;-1.69
74915;BMP280;63475;45.140;-75.616;2022-11-20T03:31:31;100156.09;;;-1.58
74915;BMP280;63475;45.140;-75.616;2022-11-20T03:32:32;100132.72;;;-1.70
74915;BMP280;63475;45.140;-75.616;2022-11-20T03:33:33;100139.13;;;-1.56
74915;BMP280;63475;45.140;-75.616;2022-11-20T03:34:34;100142.78;;;-1.57
74915;BMP280;63475;45.140;-75.616;2022-11-20T03:35:35;100128.19;;;-1.61
74915;BMP280;63475;45.140;-75.616;2022-11-20T03:36:38;100139.88;;;-1.55
74915;BMP280;63475;45.140;-75.616;2022-11-20T03:37:39;100132.09;;;-1.55
74915;BMP280;63475;45.140;-75.616;2022-11-20T03:38:41;100093.13;;;-1.79
74915;BMP280;63475;45.140;-75.616;2022-11-20T03:39:41;100125.81;;;-1.54
74915;BMP280;63475;45.140;-75.616;2022-11-20T03:40:42;100122.03;;;-1.57
74915;BMP280;63475;45.140;-75.616;2022-11-20T03:41:43;100100.91;;;-1.67
74915;BMP280;63475;45.140;-75.616;2022-11-20T03:42:45;100122.13;;;-1.53
74915;BMP280;63475;45.140;-75.616;2022-11-20T03:43:54;100113.34;;;-1.61
74915;BMP280;63475;45.140;-75.616;2022-11-20T03:44:55;100060.38;;;-1.93
74915;BMP280;63475;45.140;-75.616;2022-11-20T03:46:14;100116.06;;;-1.57
74915;BMP280;63475;45.140;-75.616;2022-11-20T03:47:15;100119.75;;;-1.58
74915;BMP280;63475;45.140;-75.616;2022-11-20T03:48:16;100108.28;;;-1.57
74915;BMP280;63475;45.140;-75.616;2022-11-20T03:49:17;100071.31;;;-1.87
74915;BMP280;63475;45.140;-75.616;2022-11-20T03:50:18;100014.59;;;-2.22
74915;BMP280;63475;45.140;-75.616;2022-11-20T03:51:27;100106.00;;;-1.59
74915;BMP280;63475;45.140;-75.616;2022-11-20T03:52:28;100104.50;;;-1.60
74915;BMP280;63475;45.140;-75.616;2022-11-20T03:53:29;100100.06;;;-1.59
74915;BMP280;63475;45.140;-75.616;2022-11-20T03:54:30;100093.03;;;-1.59
74915;BMP280;63475;45.140;-75.616;2022-11-20T03:55:30;100092.16;;;-1.63
74915;BMP280;63475;45.140;-75.616;2022-11-20T03:56:34;100058.94;;;-1.82
74915;BMP280;63475;45.140;-75.616;2022-11-20T03:57:35;100091.94;;;-1.58
74915;BMP280;63475;45.140;-75.616;2022-11-20T03:58:37;100091.19;;;-1.58
74915;BMP280;63475;45.140;-75.616;2022-11-20T03:59:39;100084.59;;;-1.56
74915;BMP280;63475;45.140;-75.616;2022-11-20T04:00:40;100028.81;;;-1.95
74915;BMP280;63475;45.140;-75.616;2022-11-20T04:01:41;100047.25;;;-1.75
74915;BMP280;63475;45.140;-75.616;2022-11-20T04:02:42;100080.59;;;-1.53
74915;BMP280;63475;45.140;-75.616;2022-11-20T04:03:43;100082.00;;;-1.56
74915;BMP280;63475;45.140;-75.616;2022-11-20T04:04:45;100074.19;;;-1.56
74915;BMP280;63475;45.140;-75.616;2022-11-20T04:05:46;100048.66;;;-1.78
74915;BMP280;63475;45.140;-75.616;2022-11-20T04:06:47;100073.34;;;-1.60
74915;BMP280;63475;45.140;-75.616;2022-11-20T04:07:48;100075.16;;;-1.60
74915;BMP280;63475;45.140;-75.616;2022-11-20T04:08:49;100074.09;;;-1.59
74915;BMP280;63475;45.140;-75.616;2022-11-20T04:09:50;100069.31;;;-1.57
74915;BMP280;63475;45.140;-75.616;2022-11-20T04:10:51;100052.34;;;-1.67
74915;BMP280;63475;45.140;-75.616;2022-11-20T04:11:52;100057.44;;;-1.58
74915;BMP280;63475;45.140;-75.616;2022-11-20T04:12:53;100055.16;;;-1.60
74915;BMP280;63475;45.140;-75.616;2022-11-20T04:14:05;100058.50;;;-1.59
74915;BMP280;63475;45.140;-75.616;2022-11-20T04:15:06;100059.25;;;-1.59
74915;BMP280;63475;45.140;-75.616;2022-11-20T04:16:08;100058.84;;;-1.61
74915;BMP280;63475;45.140;-75.616;2022-11-20T04:17:10;100049.22;;;-1.60
74915;BMP280;63475;45.140;-75.616;2022-11-20T04:18:11;100027.69;;;-1.73
74915;BMP280;63475;45.140;-75.616;2022-11-20T04:19:14;100028.78;;;-1.74
74915;BMP280;63475;45.140;-75.616;2022-11-20T04:20:15;100044.44;;;-1.58
74915;BMP280;63475;45.140;-75.616;2022-11-20T04:21:16;100045.53;;;-1.59
74915;BMP280;63475;45.140;-75.616;2022-11-20T04:22:17;100045.53;;;-1.59
74915;BMP280;63475;45.140;-75.616;2022-11-20T04:23:17;100047.03;;;-1.58
74915;BMP280;63475;45.140;-75.616;2022-11-20T04:24:18;100010.06;;;-1.79
74915;BMP280;63475;45.140;-75.616;2022-11-20T04:25:19;100045.84;;;-1.61
74915;BMP280;63475;45.140;-75.616;2022-11-20T04:26:30;100037.75;;;-1.59
74915;BMP280;63475;45.140;-75.616;2022-11-20T04:27:31;100001.84;;;-1.82
74915;BMP280;63475;45.140;-75.616;2022-11-20T04:28:32;100006.81;;;-1.76
74915;BMP280;63475;45.140;-75.616;2022-11-20T04:29:32;100031.47;;;-1.58
74915;BMP280;63475;45.140;-75.616;2022-11-20T04:30:39;100027.78;;;-1.57
74915;BMP280;63475;45.140;-75.616;2022-11-20T04:31:40;100026.28;;;-1.58
74915;BMP280;63475;45.140;-75.616;2022-11-20T04:32:53;100033.31;;;-1.59
74915;BMP280;63475;45.140;-75.616;2022-11-20T04:33:55;100029.94;;;-1.59
74915;BMP280;63475;45.140;-75.616;2022-11-20T04:35:02;100032.22;;;-1.58
74915;BMP280;63475;45.140;-75.616;2022-11-20T04:36:11;100027.78;;;-1.57
74915;BMP280;63475;45.140;-75.616;2022-11-20T04:37:12;100020.44;;;-1.55
74915;BMP280;63475;45.140;-75.616;2022-11-20T04:38:13;100024.75;;;-1.59
74915;BMP280;63475;45.140;-75.616;2022-11-20T04:39:14;100018.59;;;-1.55
74915;BMP280;63475;45.140;-75.616;2022-11-20T04:40:18;100019.03;;;-1.53
74915;BMP280;63475;45.140;-75.616;2022-11-20T04:41:20;100011.13;;;-1.56
74915;BMP280;63475;45.140;-75.616;2022-11-20T04:42:21;100009.38;;;-1.52
74915;BMP280;63475;45.140;-75.616;2022-11-20T04:43:29;100013.81;;;-1.53
74915;BMP280;63475;45.140;-75.616;2022-11-20T04:44:30;100014.59;;;-1.52
74915;BMP280;63475;45.140;-75.616;2022-11-20T04:45:31;100006.03;;;-1.53
74915;BMP280;63475;45.140;-75.616;2022-11-20T04:46:37;100004.19;;;-1.52
74915;BMP280;63475;45.140;-75.616;2022-11-20T04:47:38;100002.06;;;-1.50
74915;BMP280;63475;45.140;-75.616;2022-11-20T04:48:39;100001.28;;;-1.51
74915;BMP280;63475;45.140;-75.616;2022-11-20T04:49:40;100009.84;;;-1.50
74915;BMP280;63475;45.140;-75.616;2022-11-20T04:50:40;100010.91;;;-1.51
74915;BMP280;63475;45.140;-75.616;2022-11-20T04:51:41;100006.34;;;-1.54
74915;BMP280;63475;45.140;-75.616;2022-11-20T04:52:42;100002.06;;;-1.50
74915;BMP280;63475;45.140;-75.616;2022-11-20T04:53:43;99971.75;;;-1.70
74915;BMP280;63475;45.140;-75.616;2022-11-20T04:54:44;99998.66;;;-1.51
74915;BMP280;63475;45.140;-75.616;2022-11-20T04:55:45;99945.50;;;-1.81
74915;BMP280;63475;45.140;-75.616;2022-11-20T04:56:50;99995.13;;;-1.46
74915;BMP280;63475;45.140;-75.616;2022-11-20T04:57:50;99986.78;;;-1.52
74915;BMP280;63475;45.140;-75.616;2022-11-20T04:58:52;99987.34;;;-1.46
74915;BMP280;63475;45.140;-75.616;2022-11-20T04:59:53;99993.63;;;-1.47
74915;BMP280;63475;45.140;-75.616;2022-11-20T05:00:54;99986.56;;;-1.46
74915;BMP280;63475;45.140;-75.616;2022-11-20T05:02:00;99981.38;;;-1.46
74915;BMP280;63475;45.140;-75.616;2022-11-20T05:03:01;99936.72;;;-1.76
74915;BMP280;63475;45.140;-75.616;2022-11-20T05:04:02;99976.84;;;-1.49
74915;BMP280;63475;45.140;-75.616;2022-11-20T05:05:03;99978.69;;;-1.50
74915;BMP280;63475;45.140;-75.616;2022-11-20T05:06:05;99979.13;;;-1.48
74915;BMP280;63475;45.140;-75.616;2022-11-20T05:07:07;99981.38;;;-1.46
74915;BMP280;63475;45.140;-75.616;2022-11-20T05:08:07;99973.59;;;-1.46
74915;BMP280;63475;45.140;-75.616;2022-11-20T05:09:08;99966.88;;;-1.47
74915;BMP280;63475;45.140;-75.616;2022-11-20T05:10:09;99943.22;;;-1.70
74915;BMP280;63475;45.140;-75.616;2022-11-20T05:11:13;99970.91;;;-1.50
74915;BMP280;63475;45.140;-75.616;2022-11-20T05:12:23;99933.72;;;-1.78
74915;BMP280;63475;45.140;-75.616;2022-11-20T05:13:30;99961.03;;;-1.57
74915;BMP280;63475;45.140;-75.616;2022-11-20T05:14:31;99964.06;;;-1.55
74915;BMP280;63475;45.140;-75.616;2022-11-20T05:15:32;99965.56;;;-1.54
74915;BMP280;63475;45.140;-75.616;2022-11-20T05:16:34;99969.69;;;-1.53
74915;BMP280;63475;45.140;-75.616;2022-11-20T05:17:36;99964.38;;;-1.56
74915;BMP280;63475;45.140;-75.616;2022-11-20T05:18:37;99960.28;;;-1.57
74915;BMP280;63475;45.140;-75.616;2022-11-20T05:19:38;99956.59;;;-1.56
74915;BMP280;63475;45.140;-75.616;2022-11-20T05:20:39;99953.16;;;-1.60
74915;BMP280;63475;45.140;-75.616;2022-11-20T05:21:40;99959.41;;;-1.61
74915;BMP280;63475;45.140;-75.616;2022-11-20T05:22:41;99951.19;;;-1.63
74915;BMP280;63475;45.140;-75.616;2022-11-20T05:23:43;99951.19;;;-1.63
74915;BMP280;63475;45.140;-75.616;2022-11-20T05:24:44;99949.38;;;-1.63
74915;BMP280;63475;45.140;-75.616;2022-11-20T05:25:45;99947.41;;;-1.66
74915;BMP280;63475;45.140;-75.616;2022-11-20T05:26:46;99905.03;;;-1.94
74915;BMP280;63475;45.140;-75.616;2022-11-20T05:27:47;99957.06;;;-1.66
74915;BMP280;63475;45.140;-75.616;2022-11-20T05:28:49;99948.19;;;-1.65
74915;BMP280;63475;45.140;-75.616;2022-11-20T05:29:50;99943.75;;;-1.65
74915;BMP280;63475;45.140;-75.616;2022-11-20T05:30:51;99888.38;;;-2.05
74915;BMP280;63475;45.140;-75.616;2022-11-20T05:31:52;99931.22;;;-1.75
74915;BMP280;63475;45.140;-75.616;2022-11-20T05:32:53;99943.97;;;-1.70
74915;BMP280;63475;45.140;-75.616;2022-11-20T05:33:55;99942.88;;;-1.69
74915;BMP280;63475;45.140;-75.616;2022-11-20T05:34:56;99907.06;;;-1.88
74915;BMP280;63475;45.140;-75.616;2022-11-20T05:36:00;99928.72;;;-1.71
74915;BMP280;63475;45.140;-75.616;2022-11-20T05:37:02;99931.00;;;-1.70
74915;BMP280;63475;45.140;-75.616;2022-11-20T05:38:03;99927.97;;;-1.72
74915;BMP280;63475;45.140;-75.616;2022-11-20T05:39:04;99881.03;;;-2.03
74915;BMP280;63475;45.140;-75.616;2022-11-20T05:40:05;99870.03;;;-2.13
74915;BMP280;63475;45.140;-75.616;2022-11-20T05:41:09;99919.66;;;-1.77
74915;BMP280;63475;45.140;-75.616;2022-11-20T05:42:10;99915.88;;;-1.80
74915;BMP280;63475;45.140;-75.616;2022-11-20T05:43:32;99876.69;;;-1.99
74915;BMP280;63475;45.140;-75.616;2022-11-20T05:44:34;99908.09;;;-1.80
74915;BMP280;63475;45.140;-75.616;2022-11-20T05:45:34;99913.16;;;-1.84
74915;BMP280;63475;45.140;-75.616;2022-11-20T05:46:36;99911.31;;;-1.83
74915;BMP280;63475;45.140;-75.616;2022-11-20T05:47:36;99907.81;;;-1.87
74915;BMP280;63475;45.140;-75.616;2022-11-20T05:48:38;99908.16;;;-1.89
74915;BMP280;63475;45.140;-75.616;2022-11-20T05:49:39;99906.31;;;-1.88
74915;BMP280;63475;45.140;-75.616;2022-11-20T05:50:40;99903.28;;;-1.90
74915;BMP280;63475;45.140;-75.616;2022-11-20T05:51:41;99880.72;;;-2.02